createdAt,value
2023-01-25T00:00:50.777Z,676.60
2023-01-25T00:01:50.800Z,676.60
2023-01-25T00:02:50.867Z,676.60
2023-01-25T00:03:50.752Z,676.61
2023-01-25T00:04:50.721Z,676.61
2023-01-25T00:05:50.742Z,676.61
2023-01-25T00:06:50.710Z,676.61
2023-01-25T00:07:50.722Z,676.61
2023-01-25T00:08:50.683Z,676.60
2023-01-25T00:09:50.695Z,676.62
2023-01-25T00:10:50.662Z,676.61
2023-01-25T00:11:50.679Z,676.60
2023-01-25T00:12:50.660Z,676.60
2023-01-25T00:13:50.795Z,676.61
2023-01-25T00:14:50.774Z,676.61
2023-01-25T00:15:50.622Z,676.59
2023-01-25T00:16:50.726Z,676.60
2023-01-25T00:17:50.590Z,676.61
2023-01-25T00:18:50.605Z,676.60
2023-01-25T00:19:50.582Z,676.61
2023-01-25T00:20:50.566Z,676.60
2023-01-25T00:21:50.565Z,676.61
2023-01-25T00:22:50.538Z,676.61
2023-01-25T00:23:50.636Z,676.61
2023-01-25T00:24:50.506Z,676.61
2023-01-25T00:25:50.511Z,676.60
2023-01-25T00:26:50.489Z,676.60
2023-01-25T00:27:50.493Z,676.61
2023-01-25T00:28:50.470Z,676.61
2023-01-25T00:29:50.574Z,676.61
2023-01-25T00:30:50.438Z,676.62
2023-01-25T00:31:50.574Z,676.61
2023-01-25T00:32:50.524Z,676.60
2023-01-25T00:33:50.422Z,676.59
2023-01-25T00:34:50.442Z,676.61
2023-01-25T00:35:50.399Z,676.61
2023-01-25T00:36:50.399Z,676.60
2023-01-25T00:37:50.378Z,676.61
2023-01-25T00:38:50.359Z,676.60
2023-01-25T00:39:50.371Z,676.61
2023-01-25T00:40:50.339Z,676.61
2023-01-25T00:41:50.322Z,676.61
2023-01-25T00:42:50.371Z,676.61
2023-01-25T00:43:50.298Z,676.61
2023-01-25T00:44:50.297Z,676.61
2023-01-25T00:45:50.362Z,676.61
2023-01-25T00:46:50.278Z,676.61
2023-01-25T00:47:50.248Z,676.61
2023-01-25T00:48:50.254Z,676.60
2023-01-25T00:49:50.246Z,676.61
2023-01-25T00:50:50.239Z,676.60
2023-01-25T00:51:50.219Z,676.61
2023-01-25T00:52:50.210Z,676.61
2023-01-25T00:53:50.184Z,676.60
2023-01-25T00:54:50.183Z,676.60
2023-01-25T00:55:50.176Z,676.61
2023-01-25T00:56:50.159Z,676.60
2023-01-25T00:57:50.139Z,676.61
2023-01-25T00:58:50.141Z,676.61
2023-01-25T00:59:50.132Z,676.61
2023-01-25T01:00:50.146Z,676.60
2023-01-25T01:01:50.108Z,676.61
2023-01-25T01:02:50.478Z,676.61
2023-01-25T01:03:50.072Z,676.61
2023-01-25T01:04:50.190Z,676.61
2023-01-25T01:05:50.067Z,676.61
2023-01-25T01:06:50.044Z,676.61
2023-01-25T01:07:50.030Z,676.60
2023-01-25T01:08:50.027Z,676.61
2023-01-25T01:09:50.000Z,676.61
2023-01-25T01:10:50.023Z,676.61
2023-01-25T01:11:49.986Z,676.61
2023-01-25T01:12:50.004Z,676.60
2023-01-25T01:13:49.967Z,676.61
2023-01-25T01:14:49.990Z,676.62
2023-01-25T01:15:49.965Z,676.62
2023-01-25T01:16:49.999Z,676.61
2023-01-25T01:17:49.918Z,676.61
2023-01-25T01:18:49.914Z,676.61
2023-01-25T01:19:49.896Z,676.61
2023-01-25T01:20:49.907Z,676.60
2023-01-25T01:21:49.900Z,676.61
2023-01-25T01:22:49.894Z,676.62
2023-01-25T01:23:49.953Z,676.62
2023-01-25T01:24:49.856Z,676.61
2023-01-25T01:25:49.855Z,676.61
2023-01-25T01:26:49.830Z,676.61
2023-01-25T01:27:49.796Z,676.61
2023-01-25T01:28:49.811Z,676.61
2023-01-25T01:29:49.785Z,676.61
2023-01-25T01:30:49.816Z,676.61
2023-01-25T01:31:50.024Z,676.61
2023-01-25T01:32:49.896Z,676.61
2023-01-25T01:33:49.746Z,676.61
2023-01-25T01:34:49.747Z,676.61
2023-01-25T01:35:49.710Z,676.61
2023-01-25T01:36:49.748Z,676.61
2023-01-25T01:37:49.695Z,676.62
2023-01-25T01:38:49.708Z,676.60
2023-01-25T01:39:49.677Z,676.61
2023-01-25T01:40:49.676Z,676.61
2023-01-25T01:41:49.647Z,676.60
2023-01-25T01:42:49.683Z,676.62
2023-01-25T01:43:49.675Z,676.61
2023-01-25T01:44:49.652Z,676.61
2023-01-25T01:45:49.663Z,676.61
2023-01-25T01:46:49.699Z,676.62
2023-01-25T01:47:49.600Z,676.62
2023-01-25T01:48:49.588Z,676.60
2023-01-25T01:49:49.556Z,676.60
2023-01-25T01:50:49.584Z,676.61
2023-01-25T01:51:49.544Z,676.61
2023-01-25T01:52:49.566Z,676.62
2023-01-25T01:53:49.512Z,676.61
2023-01-25T01:54:49.516Z,676.61
2023-01-25T01:55:49.484Z,676.60
2023-01-25T01:56:49.495Z,676.61
2023-01-25T01:57:49.504Z,676.60
2023-01-25T01:58:49.480Z,676.61
2023-01-25T01:59:49.465Z,676.60
2023-01-25T02:00:49.446Z,676.61
2023-01-25T02:01:49.427Z,676.61
2023-01-25T02:02:49.513Z,676.61
2023-01-25T02:03:49.422Z,676.61
2023-01-25T02:04:49.418Z,676.62
2023-01-25T02:05:49.387Z,676.61
2023-01-25T02:06:49.384Z,676.61
2023-01-25T02:07:49.358Z,676.62
2023-01-25T02:08:49.364Z,676.61
2023-01-25T02:09:49.335Z,676.61
2023-01-25T02:10:49.335Z,676.62
2023-01-25T02:11:49.316Z,676.61
2023-01-25T02:12:49.332Z,676.61
2023-01-25T02:13:49.291Z,676.61
2023-01-25T02:14:49.306Z,676.61
2023-01-25T02:15:49.324Z,676.61
2023-01-25T02:16:49.267Z,676.61
2023-01-25T02:17:49.257Z,676.62
2023-01-25T02:18:49.268Z,676.61
2023-01-25T02:19:49.224Z,676.62
2023-01-25T02:20:49.211Z,676.60
2023-01-25T02:21:49.200Z,676.61
2023-01-25T02:22:49.243Z,676.60
2023-01-25T02:23:49.212Z,676.62
2023-01-25T02:24:49.172Z,676.61
2023-01-25T02:25:49.159Z,676.62
2023-01-25T02:26:49.161Z,676.61
2023-01-25T02:27:49.164Z,676.61
2023-01-25T02:28:49.140Z,676.61
2023-01-25T02:29:49.113Z,676.62
2023-01-25T02:30:49.177Z,676.61
2023-01-25T02:31:49.218Z,676.62
2023-01-25T02:32:49.092Z,676.62
2023-01-25T02:33:49.085Z,676.61
2023-01-25T02:34:49.076Z,676.61
2023-01-25T02:35:49.057Z,676.62
2023-01-25T02:36:49.265Z,676.61
2023-01-25T02:37:49.028Z,676.61
2023-01-25T02:38:49.144Z,676.60
2023-01-25T02:39:49.016Z,676.61
2023-01-25T02:40:49.005Z,676.61
2023-01-25T02:41:48.980Z,676.61
2023-01-25T02:42:49.092Z,676.61
2023-01-25T02:43:48.965Z,676.62
2023-01-25T02:44:48.972Z,676.61
2023-01-25T02:45:49.016Z,676.61
2023-01-25T02:46:48.960Z,676.62
2023-01-25T02:47:48.917Z,676.62
2023-01-25T02:48:48.940Z,676.61
2023-01-25T02:49:49.340Z,676.61
2023-01-25T02:50:48.897Z,676.61
2023-01-25T02:51:48.878Z,676.61
2023-01-25T02:52:48.890Z,676.62
2023-01-25T02:53:48.876Z,676.62
2023-01-25T02:54:48.872Z,676.62
2023-01-25T02:55:48.834Z,676.61
2023-01-25T02:56:48.835Z,676.62
2023-01-25T02:57:48.801Z,676.62
2023-01-25T02:58:48.801Z,676.62
2023-01-25T02:59:48.793Z,676.61
2023-01-25T03:00:48.784Z,676.61
2023-01-25T03:01:48.840Z,676.62
2023-01-25T03:02:49.489Z,676.61
2023-01-25T03:03:48.741Z,676.61
2023-01-25T03:04:48.741Z,676.62
2023-01-25T03:05:48.736Z,676.62
2023-01-25T03:06:48.712Z,676.61
2023-01-25T03:07:48.731Z,676.61
2023-01-25T03:08:48.693Z,676.62
2023-01-25T03:09:48.678Z,676.61
2023-01-25T03:10:48.686Z,676.62
2023-01-25T03:11:48.912Z,676.61
2023-01-25T03:12:48.652Z,676.62
2023-01-25T03:13:48.633Z,676.62
2023-01-25T03:14:48.616Z,676.61
2023-01-25T03:15:48.637Z,676.61
2023-01-25T03:16:48.611Z,676.62
2023-01-25T03:17:48.587Z,676.61
2023-01-25T03:18:48.589Z,676.63
2023-01-25T03:19:48.561Z,676.61
2023-01-25T03:20:48.583Z,676.63
2023-01-25T03:21:48.543Z,676.61
2023-01-25T03:22:48.590Z,676.62
2023-01-25T03:23:48.555Z,676.61
2023-01-25T03:24:48.508Z,676.62
2023-01-25T03:25:48.503Z,676.61
2023-01-25T03:26:48.490Z,676.61
2023-01-25T03:27:48.569Z,676.62
2023-01-25T03:28:48.483Z,676.62
2023-01-25T03:29:48.591Z,676.62
2023-01-25T03:30:48.441Z,676.60
2023-01-25T03:31:48.531Z,676.62
2023-01-25T03:32:48.454Z,676.62
2023-01-25T03:33:48.430Z,676.62
2023-01-25T03:34:48.412Z,676.61
2023-01-25T03:35:48.423Z,676.62
2023-01-25T03:36:48.385Z,676.62
2023-01-25T03:37:48.389Z,676.61
2023-01-25T03:38:48.358Z,676.62
2023-01-25T03:39:48.358Z,676.61
2023-01-25T03:40:48.330Z,676.61
2023-01-25T03:41:48.328Z,676.61
2023-01-25T03:42:48.310Z,676.61
2023-01-25T03:43:48.314Z,676.61
2023-01-25T03:44:48.279Z,676.62
2023-01-25T03:45:48.272Z,676.61
2023-01-25T03:46:48.344Z,676.61
2023-01-25T03:47:48.254Z,676.63
2023-01-25T03:48:48.250Z,676.62
2023-01-25T03:49:48.220Z,676.62
2023-01-25T03:50:48.218Z,676.61
2023-01-25T03:51:48.211Z,676.61
2023-01-25T03:52:48.226Z,676.62
2023-01-25T03:53:48.191Z,676.62
2023-01-25T03:54:48.206Z,676.62
2023-01-25T03:55:49.714Z,676.62
2023-01-25T03:56:48.152Z,676.62
2023-01-25T03:57:48.138Z,676.62
2023-01-25T03:58:48.141Z,676.62
2023-01-25T03:59:48.126Z,676.62
2023-01-25T04:00:48.317Z,676.62
2023-01-25T04:01:48.091Z,676.61
2023-01-25T04:02:48.200Z,676.61
2023-01-25T04:03:48.070Z,676.62
2023-01-25T04:04:48.074Z,676.61
2023-01-25T04:05:48.053Z,676.61
2023-01-25T04:06:48.064Z,676.63
2023-01-25T04:07:48.020Z,676.61
2023-01-25T04:08:48.024Z,676.61
2023-01-25T04:09:48.039Z,676.62
2023-01-25T04:10:48.004Z,676.63
2023-01-25T04:11:48.047Z,676.62
2023-01-25T04:12:47.974Z,676.63
2023-01-25T04:13:47.970Z,676.62
2023-01-25T04:14:47.947Z,676.61
2023-01-25T04:15:47.933Z,676.61
2023-01-25T04:16:47.985Z,676.62
2023-01-25T04:17:47.939Z,676.62
2023-01-25T04:18:47.906Z,676.62
2023-01-25T04:19:47.892Z,676.62
2023-01-25T04:20:47.892Z,676.62
2023-01-25T04:21:47.859Z,676.62
2023-01-25T04:22:47.903Z,676.62
2023-01-25T04:23:47.879Z,676.62
2023-01-25T04:24:47.849Z,676.62
2023-01-25T04:25:47.814Z,676.60
2023-01-25T04:26:47.843Z,676.61
2023-01-25T04:27:47.808Z,676.62
2023-01-25T04:28:47.818Z,676.62
2023-01-25T04:29:47.777Z,676.62
2023-01-25T04:30:47.779Z,676.61
2023-01-25T04:31:48.602Z,676.62
2023-01-25T04:32:47.887Z,676.61
2023-01-25T04:33:48.663Z,676.61
2023-01-25T04:34:47.752Z,676.61
2023-01-25T04:35:47.708Z,676.61
2023-01-25T04:36:47.718Z,676.61
2023-01-25T04:37:47.699Z,676.63
2023-01-25T04:38:47.691Z,676.62
2023-01-25T04:39:47.697Z,676.62
2023-01-25T04:40:47.676Z,676.61
2023-01-25T04:41:47.648Z,676.61
2023-01-25T04:42:47.660Z,676.62
2023-01-25T04:43:47.884Z,676.62
2023-01-25T04:44:47.610Z,676.62
2023-01-25T04:45:47.645Z,676.62
2023-01-25T04:46:47.613Z,676.60
2023-01-25T04:47:47.576Z,676.62
2023-01-25T04:48:47.591Z,676.64
2023-01-25T04:49:47.562Z,676.62
2023-01-25T04:50:47.569Z,676.62
2023-01-25T04:51:47.720Z,676.62
2023-01-25T04:52:47.524Z,676.62
2023-01-25T04:53:47.530Z,676.62
2023-01-25T04:54:47.505Z,676.63
2023-01-25T04:55:47.525Z,676.62
2023-01-25T04:56:47.484Z,676.62
2023-01-25T04:57:47.477Z,676.63
2023-01-25T04:58:47.495Z,676.62
2023-01-25T04:59:47.479Z,676.62
2023-01-25T05:00:47.495Z,676.62
2023-01-25T05:01:47.464Z,676.62
2023-01-25T05:02:47.690Z,676.62
2023-01-25T05:03:47.435Z,676.62
2023-01-25T05:04:47.405Z,676.61
2023-01-25T05:05:47.384Z,676.61
2023-01-25T05:06:47.390Z,676.62
2023-01-25T05:07:47.373Z,676.62
2023-01-25T05:08:47.344Z,676.62
2023-01-25T05:09:47.348Z,676.62
2023-01-25T05:10:48.277Z,676.62
2023-01-25T05:11:47.732Z,676.61
2023-01-25T05:12:47.329Z,676.63
2023-01-25T05:13:47.323Z,676.62
2023-01-25T05:14:47.277Z,676.62
2023-01-25T05:15:47.297Z,676.62
2023-01-25T05:16:47.474Z,676.62
2023-01-25T05:17:47.252Z,676.62
2023-01-25T05:18:49.128Z,676.62
2023-01-25T05:19:47.232Z,676.62
2023-01-25T05:20:47.254Z,676.62
2023-01-25T05:21:47.224Z,676.62
2023-01-25T05:22:47.705Z,676.62
2023-01-25T05:23:47.308Z,676.64
2023-01-25T05:24:47.166Z,676.63
2023-01-25T05:25:47.173Z,676.62
2023-01-25T05:26:47.211Z,676.63
2023-01-25T05:27:47.145Z,676.64
2023-01-25T05:28:47.234Z,676.62
2023-01-25T05:29:47.132Z,676.62
2023-01-25T05:30:47.600Z,676.65
2023-01-25T05:31:47.711Z,676.64
2023-01-25T05:32:47.105Z,676.62
2023-01-25T05:33:47.709Z,676.62
2023-01-25T05:34:47.095Z,676.63
2023-01-25T05:35:47.045Z,676.62
2023-01-25T05:36:47.087Z,676.63
2023-01-25T05:37:47.051Z,676.63
2023-01-25T05:38:47.022Z,676.63
2023-01-25T05:39:47.009Z,676.64
2023-01-25T05:40:47.013Z,676.63
2023-01-25T05:41:47.020Z,676.62
2023-01-25T05:42:46.973Z,676.63
2023-01-25T05:43:46.954Z,676.63
2023-01-25T05:44:47.902Z,676.65
2023-01-25T05:45:46.979Z,676.62
2023-01-25T05:46:46.973Z,676.62
2023-01-25T05:47:46.984Z,676.63
2023-01-25T05:48:46.907Z,676.62
2023-01-25T05:49:46.924Z,676.63
2023-01-25T05:50:46.873Z,676.63
2023-01-25T05:51:46.903Z,676.62
2023-01-25T05:52:46.853Z,676.62
2023-01-25T05:53:46.873Z,676.64
2023-01-25T05:54:46.839Z,676.63
2023-01-25T05:55:46.834Z,676.63
2023-01-25T05:56:47.114Z,676.62
2023-01-25T05:57:46.827Z,676.62
2023-01-25T05:58:46.813Z,676.63
2023-01-25T05:59:51.289Z,676.64
2023-01-25T06:00:46.801Z,676.63
2023-01-25T06:01:46.793Z,676.64
2023-01-25T06:02:46.905Z,676.62
2023-01-25T06:03:46.814Z,676.62
2023-01-25T06:04:46.724Z,676.63
2023-01-25T06:05:46.722Z,676.62
2023-01-25T06:06:46.714Z,676.64
2023-01-25T06:07:46.690Z,676.63
2023-01-25T06:08:46.689Z,676.63
2023-01-25T06:09:46.702Z,676.64
2023-01-25T06:10:46.651Z,676.63
2023-01-25T06:11:46.705Z,676.63
2023-01-25T06:12:47.255Z,676.65
2023-01-25T06:13:46.657Z,676.61
2023-01-25T06:14:46.628Z,676.63
2023-01-25T06:15:46.647Z,676.62
2023-01-25T06:16:46.642Z,676.64
2023-01-25T06:17:46.589Z,676.62
2023-01-25T06:18:46.782Z,676.64
2023-01-25T06:19:46.568Z,676.64
2023-01-25T06:20:46.861Z,676.64
2023-01-25T06:21:46.547Z,676.65
2023-01-25T06:22:46.531Z,676.65
2023-01-25T06:23:46.582Z,676.65
2023-01-25T06:24:46.498Z,676.65
2023-01-25T06:25:46.498Z,676.65
2023-01-25T06:26:46.498Z,676.63
2023-01-25T06:27:46.489Z,676.63
2023-01-25T06:28:46.789Z,676.65
2023-01-25T06:29:46.487Z,676.66
2023-01-25T06:30:46.540Z,676.65
2023-01-25T06:31:46.467Z,676.65
2023-01-25T06:32:46.409Z,676.63
2023-01-25T06:33:46.409Z,676.64
2023-01-25T06:34:46.441Z,676.66
2023-01-25T06:35:46.391Z,676.63
2023-01-25T06:36:46.382Z,676.65
2023-01-25T06:37:46.370Z,676.65
2023-01-25T06:38:46.370Z,676.63
2023-01-25T06:39:46.353Z,676.66
2023-01-25T06:40:46.332Z,676.62
2023-01-25T06:41:46.336Z,676.65
2023-01-25T06:42:46.310Z,676.64
2023-01-25T06:43:46.598Z,676.64
2023-01-25T06:44:46.278Z,676.65
2023-01-25T06:45:46.270Z,676.66
2023-01-25T06:46:46.314Z,676.66
2023-01-25T06:47:46.254Z,676.62
2023-01-25T06:48:46.259Z,676.64
2023-01-25T06:49:46.247Z,676.63
2023-01-25T06:50:46.233Z,676.65
2023-01-25T06:51:46.206Z,676.63
2023-01-25T06:52:46.197Z,676.65
2023-01-25T06:53:46.203Z,676.63
2023-01-25T06:54:46.169Z,676.65
2023-01-25T06:55:46.175Z,676.65
2023-01-25T06:56:46.167Z,676.65
2023-01-25T06:57:46.139Z,676.64
2023-01-25T06:58:46.151Z,676.65
2023-01-25T06:59:46.119Z,676.64
2023-01-25T07:00:46.138Z,676.65
2023-01-25T07:01:46.150Z,676.65
2023-01-25T07:02:46.139Z,676.64
2023-01-25T07:03:46.098Z,676.65
2023-01-25T07:04:46.057Z,676.65
2023-01-25T07:05:46.099Z,676.65
2023-01-25T07:06:46.092Z,676.65
2023-01-25T07:07:46.055Z,676.66
2023-01-25T07:08:46.019Z,676.64
2023-01-25T07:09:46.014Z,676.65
2023-01-25T07:10:45.997Z,676.64
2023-01-25T07:11:46.018Z,676.65
2023-01-25T07:12:46.003Z,676.66
2023-01-25T07:13:45.993Z,676.65
2023-01-25T07:14:45.979Z,676.63
2023-01-25T07:15:45.976Z,676.65
2023-01-25T07:16:45.947Z,676.65
2023-01-25T07:17:45.938Z,676.64
2023-01-25T07:18:45.924Z,676.65
2023-01-25T07:19:45.939Z,676.66
2023-01-25T07:20:46.038Z,676.65
2023-01-25T07:21:45.916Z,676.65
2023-01-25T07:22:45.874Z,676.66
2023-01-25T07:23:45.887Z,676.66
2023-01-25T07:24:45.846Z,676.66
2023-01-25T07:25:45.835Z,676.66
2023-01-25T07:26:45.828Z,676.65
2023-01-25T07:27:45.835Z,676.66
2023-01-25T07:28:45.812Z,676.65
2023-01-25T07:29:45.775Z,676.64
2023-01-25T07:30:45.788Z,676.66
2023-01-25T07:31:45.878Z,676.65
2023-01-25T07:32:46.005Z,676.66
2023-01-25T07:33:45.755Z,676.65
2023-01-25T07:34:45.747Z,676.65
2023-01-25T07:35:45.730Z,676.65
2023-01-25T07:36:45.827Z,676.65
2023-01-25T07:37:45.729Z,676.66
2023-01-25T07:38:45.691Z,676.65
2023-01-25T07:39:45.682Z,676.65
2023-01-25T07:40:46.367Z,676.65
2023-01-25T07:41:46.374Z,676.66
2023-01-25T07:42:45.635Z,676.65
2023-01-25T07:43:45.660Z,676.66
2023-01-25T07:44:45.627Z,676.65
2023-01-25T07:45:45.618Z,676.66
2023-01-25T07:46:45.607Z,676.64
2023-01-25T07:47:45.630Z,676.65
2023-01-25T07:48:45.587Z,676.65
2023-01-25T07:49:45.582Z,676.65
2023-01-25T07:50:45.556Z,676.65
2023-01-25T07:51:45.557Z,676.65
2023-01-25T07:52:45.656Z,676.65
2023-01-25T07:53:45.527Z,676.65
2023-01-25T07:54:46.812Z,676.65
2023-01-25T07:55:45.533Z,676.64
2023-01-25T07:56:45.504Z,676.65
2023-01-25T07:57:45.795Z,676.65
2023-01-25T07:58:45.471Z,676.66
2023-01-25T07:59:45.471Z,676.66
2023-01-25T08:00:45.449Z,676.65
2023-01-25T08:01:45.436Z,676.66
2023-01-25T08:02:45.460Z,676.65
2023-01-25T08:03:45.428Z,676.67
2023-01-25T08:04:45.511Z,676.64
2023-01-25T08:05:45.445Z,676.66
2023-01-25T08:06:45.403Z,676.66
2023-01-25T08:07:45.535Z,676.65
2023-01-25T08:08:45.376Z,676.65
2023-01-25T08:09:45.388Z,676.65
2023-01-25T08:10:45.335Z,676.65
2023-01-25T08:11:45.326Z,676.65
2023-01-25T08:12:45.337Z,676.64
2023-01-25T08:13:45.313Z,676.65
2023-01-25T08:14:45.300Z,676.65
2023-01-25T08:15:45.471Z,676.65
2023-01-25T08:16:45.290Z,676.65
2023-01-25T08:17:45.261Z,676.66
2023-01-25T08:18:45.241Z,676.65
2023-01-25T08:19:45.324Z,676.66
2023-01-25T08:20:45.219Z,676.65
2023-01-25T08:21:45.255Z,676.65
2023-01-25T08:22:45.201Z,676.65
2023-01-25T08:23:45.259Z,676.65
2023-01-25T08:24:45.413Z,676.66
2023-01-25T08:25:45.180Z,676.66
2023-01-25T08:26:45.185Z,676.65
2023-01-25T08:27:45.180Z,676.66
2023-01-25T08:28:45.127Z,676.65
2023-01-25T08:29:45.121Z,676.65
2023-01-25T08:30:56.434Z,676.65
2023-01-25T08:31:46.426Z,676.65
2023-01-25T08:32:45.080Z,676.65
2023-01-25T08:33:45.084Z,676.65
2023-01-25T08:34:45.061Z,676.66
2023-01-25T08:35:45.052Z,676.66
2023-01-25T08:36:45.060Z,676.65
2023-01-25T08:37:45.293Z,676.66
2023-01-25T08:38:45.012Z,676.65
2023-01-25T08:39:45.040Z,676.65
2023-01-25T08:40:44.992Z,676.65
2023-01-25T08:41:45.001Z,676.65
2023-01-25T08:42:45.003Z,676.65
2023-01-25T08:43:44.983Z,676.65
2023-01-25T08:44:45.819Z,676.65
2023-01-25T08:45:45.390Z,676.66
2023-01-25T08:46:45.020Z,676.65
2023-01-25T08:47:44.931Z,676.65
2023-01-25T08:48:44.909Z,676.65
2023-01-25T08:49:44.908Z,676.66
2023-01-25T08:50:44.883Z,676.65
2023-01-25T08:51:44.882Z,676.66
2023-01-25T08:52:44.877Z,676.65
2023-01-25T08:53:44.878Z,676.65
2023-01-25T08:54:44.878Z,676.66
2023-01-25T08:55:44.844Z,676.66
2023-01-25T08:56:44.833Z,676.65
2023-01-25T08:57:44.818Z,676.65
2023-01-25T08:58:44.791Z,676.66
2023-01-25T08:59:44.813Z,676.65
2023-01-25T09:00:44.786Z,676.65
2023-01-25T09:01:44.778Z,676.65
2023-01-25T09:02:44.790Z,676.65
2023-01-25T09:03:44.861Z,676.65
2023-01-25T09:04:44.737Z,676.66
2023-01-25T09:05:44.729Z,676.65
2023-01-25T09:06:44.710Z,676.66
2023-01-25T09:07:44.738Z,676.66
2023-01-25T09:08:44.735Z,676.65
2023-01-25T09:09:44.678Z,676.65
2023-01-25T09:10:44.671Z,676.64
2023-01-25T09:11:44.652Z,676.66
2023-01-25T09:12:44.662Z,676.65
2023-01-25T09:13:44.655Z,676.66
2023-01-25T09:14:44.874Z,676.64
2023-01-25T09:15:44.627Z,676.66
2023-01-25T09:16:44.609Z,676.65
2023-01-25T09:17:44.592Z,676.65
2023-01-25T09:18:44.628Z,676.66
2023-01-25T09:19:44.610Z,676.65
2023-01-25T09:20:44.559Z,676.65
2023-01-25T09:21:44.563Z,676.65
2023-01-25T09:22:44.540Z,676.65
2023-01-25T09:23:51.203Z,676.64
2023-01-25T09:24:45.576Z,676.65
2023-01-25T09:25:44.494Z,676.65
2023-01-25T09:26:52.788Z,676.66
2023-01-25T09:27:45.489Z,676.65
2023-01-25T09:28:44.467Z,676.65
2023-01-25T09:30:00.005Z,676.66
2023-01-25T09:30:48.797Z,676.65
2023-01-25T09:31:45.615Z,676.65
2023-01-25T09:32:44.503Z,676.66
2023-01-25T09:33:44.397Z,676.65
2023-01-25T09:34:44.417Z,676.65
2023-01-25T09:35:44.388Z,676.66
2023-01-25T09:36:44.393Z,676.65
2023-01-25T09:37:44.386Z,676.65
2023-01-25T09:38:44.358Z,676.66
2023-01-25T09:39:44.349Z,676.65
2023-01-25T09:40:44.609Z,676.65
2023-01-25T09:41:44.317Z,676.65
2023-01-25T09:42:44.322Z,676.66
2023-01-25T09:43:44.291Z,676.64
2023-01-25T09:44:44.312Z,676.64
2023-01-25T09:45:44.286Z,676.65
2023-01-25T09:46:44.281Z,676.65
2023-01-25T09:47:44.267Z,676.65
2023-01-25T09:48:44.247Z,676.65
2023-01-25T09:49:44.232Z,676.65
2023-01-25T09:50:44.238Z,676.65
2023-01-25T09:51:44.239Z,676.65
2023-01-25T09:52:44.217Z,676.65
2023-01-25T09:53:44.211Z,676.65
2023-01-25T09:54:47.610Z,676.65
2023-01-25T09:55:44.205Z,676.67
2023-01-25T09:56:44.167Z,676.65
2023-01-25T09:57:44.146Z,676.65
2023-01-25T09:58:44.146Z,676.65
2023-01-25T09:59:44.116Z,676.65
2023-01-25T10:00:44.126Z,676.65
2023-01-25T10:01:44.367Z,676.66
2023-01-25T10:02:44.174Z,676.65
2023-01-25T10:03:44.081Z,676.65
2023-01-25T10:04:44.065Z,676.65
2023-01-25T10:05:44.073Z,676.66
2023-01-25T10:06:54.996Z,676.65
2023-01-25T10:07:45.042Z,676.65
2023-01-25T10:08:44.016Z,676.66
2023-01-25T10:09:44.014Z,676.65
2023-01-25T10:10:44.049Z,676.65
2023-01-25T10:11:45.372Z,676.67
2023-01-25T10:12:43.982Z,676.66
2023-01-25T10:13:44.921Z,676.66
2023-01-25T10:14:43.956Z,676.65
2023-01-25T10:15:44.007Z,676.66
2023-01-25T10:16:44.016Z,676.67
2023-01-25T10:17:43.929Z,676.65
2023-01-25T10:18:43.915Z,676.66
2023-01-25T10:19:43.895Z,676.65
2023-01-25T10:20:43.915Z,676.66
2023-01-25T10:21:43.874Z,676.65
2023-01-25T10:22:44.017Z,676.66
2023-01-25T10:23:43.877Z,676.65
2023-01-25T10:24:43.910Z,676.65
2023-01-25T10:25:43.847Z,676.66
2023-01-25T10:26:43.875Z,676.66
2023-01-25T10:27:43.817Z,676.66
2023-01-25T10:28:43.935Z,676.65
2023-01-25T10:29:43.770Z,676.65
2023-01-25T10:30:43.864Z,676.65
2023-01-25T10:31:43.802Z,676.65
2023-01-25T10:32:55.421Z,676.65
2023-01-25T10:33:44.745Z,676.66
2023-01-25T10:34:55.433Z,676.66
2023-01-25T10:35:47.017Z,676.66
2023-01-25T10:36:43.719Z,676.65
2023-01-25T10:37:43.695Z,676.67
2023-01-25T10:38:43.734Z,676.66
2023-01-25T10:39:43.675Z,676.66
2023-01-25T10:40:43.664Z,676.66
2023-01-25T10:41:43.663Z,676.66
2023-01-25T10:42:43.643Z,676.66
2023-01-25T10:43:43.652Z,676.65
2023-01-25T10:44:43.640Z,676.66
2023-01-25T10:45:43.599Z,676.65
2023-01-25T10:46:43.652Z,676.65
2023-01-25T10:47:43.592Z,676.66
2023-01-25T10:48:43.591Z,676.66
2023-01-25T10:49:43.597Z,676.65
2023-01-25T10:50:43.566Z,676.65
2023-01-25T10:51:43.537Z,676.65
2023-01-25T10:52:43.540Z,676.65
2023-01-25T10:53:43.525Z,676.65
2023-01-25T10:54:43.554Z,676.66
2023-01-25T10:55:43.491Z,676.66
2023-01-25T10:56:43.503Z,676.66
2023-01-25T10:57:43.480Z,676.66
2023-01-25T10:58:43.490Z,676.65
2023-01-25T10:59:43.459Z,676.65
2023-01-25T11:00:43.459Z,676.66
2023-01-25T11:01:43.514Z,676.66
2023-01-25T11:02:43.472Z,676.65
2023-01-25T11:03:43.414Z,676.66
2023-01-25T11:04:44.378Z,676.65
2023-01-25T11:05:43.393Z,676.66
2023-01-25T11:06:43.404Z,676.65
2023-01-25T11:07:43.377Z,676.65
2023-01-25T11:08:43.426Z,676.65
2023-01-25T11:09:43.348Z,676.66
2023-01-25T11:10:43.372Z,676.65
2023-01-25T11:11:43.328Z,676.66
2023-01-25T11:12:43.324Z,676.66
2023-01-25T11:13:43.299Z,676.65
2023-01-25T11:14:43.292Z,676.66
2023-01-25T11:15:43.349Z,676.66
2023-01-25T11:16:43.300Z,676.65
2023-01-25T11:17:43.253Z,676.66
2023-01-25T11:18:43.244Z,676.66
2023-01-25T11:19:43.230Z,676.66
2023-01-25T11:20:43.232Z,676.65
2023-01-25T11:21:43.488Z,676.66
2023-01-25T11:22:43.213Z,676.65
2023-01-25T11:23:43.201Z,676.66
2023-01-25T11:24:43.191Z,676.65
2023-01-25T11:25:43.158Z,676.65
2023-01-25T11:26:43.167Z,676.66
2023-01-25T11:27:43.180Z,676.66
2023-01-25T11:28:43.160Z,676.65
2023-01-25T11:29:43.117Z,676.66
2023-01-25T11:30:43.151Z,676.65
2023-01-25T11:31:43.202Z,676.65
2023-01-25T11:32:43.100Z,676.66
2023-01-25T11:33:43.102Z,676.65
2023-01-25T11:34:43.087Z,676.66
2023-01-25T11:35:43.068Z,676.65
2023-01-25T11:36:43.047Z,676.65
2023-01-25T11:37:43.045Z,676.67
2023-01-25T11:38:43.036Z,676.65
2023-01-25T11:39:43.038Z,676.65
2023-01-25T11:40:43.016Z,676.65
2023-01-25T11:41:42.995Z,676.66
2023-01-25T11:42:43.038Z,676.65
2023-01-25T11:43:42.976Z,676.66
2023-01-25T11:44:42.960Z,676.65
2023-01-25T11:45:43.664Z,676.65
2023-01-25T11:46:42.962Z,676.65
2023-01-25T11:47:42.992Z,676.66
2023-01-25T11:48:42.920Z,676.66
2023-01-25T11:49:42.896Z,676.66
2023-01-25T11:50:42.888Z,676.66
2023-01-25T11:51:42.882Z,676.66
2023-01-25T11:52:42.913Z,676.65
2023-01-25T11:53:42.867Z,676.66
2023-01-25T11:54:43.858Z,676.65
2023-01-25T11:55:42.836Z,676.66
2023-01-25T11:56:42.824Z,676.65
2023-01-25T11:57:44.955Z,676.66
2023-01-25T11:58:42.806Z,676.66
2023-01-25T11:59:42.835Z,676.65
2023-01-25T12:00:42.806Z,676.66
2023-01-25T12:01:42.797Z,676.65
2023-01-25T12:02:42.834Z,676.65
2023-01-25T12:03:42.784Z,676.66
2023-01-25T12:04:42.772Z,676.64
2023-01-25T12:05:42.745Z,676.65
2023-01-25T12:06:42.729Z,676.66
2023-01-25T12:07:42.705Z,676.66
2023-01-25T12:08:42.697Z,676.65
2023-01-25T12:09:42.696Z,676.66
2023-01-25T12:10:42.685Z,676.66
2023-01-25T12:11:42.656Z,676.66
2023-01-25T12:12:42.653Z,676.65
2023-01-25T12:13:42.647Z,676.66
2023-01-25T12:14:42.636Z,676.65
2023-01-25T12:15:42.646Z,676.65
2023-01-25T12:16:42.613Z,676.66
2023-01-25T12:17:42.609Z,676.66
2023-01-25T12:18:42.616Z,676.65
2023-01-25T12:19:42.566Z,676.66
2023-01-25T12:20:42.580Z,676.66
2023-01-25T12:21:42.555Z,676.66
2023-01-25T12:22:42.545Z,676.66
2023-01-25T12:23:42.528Z,676.66
2023-01-25T12:24:43.283Z,676.65
2023-01-25T12:25:42.523Z,676.65
2023-01-25T12:26:42.498Z,676.65
2023-01-25T12:27:42.486Z,676.66
2023-01-25T12:28:42.489Z,676.66